Time;durP1;ratioP1;P1;durP2;ratioP2;P2;SDS_P1;SDS_P2;PMS_P1;PMS_P2;Temp;Humidity;BMP_temperature;BMP_pressure;BME280_temperature;BME280_humidity;BME280_pressure;Samples;Min_cycle;Max_cycle;Signal;HPM_P1;HPM_P2
2022/04/26 03:39:53;;;;;;;;;;;16.20;91.70;;;;;;31510211;28;19926;-24
2022/04/26 03:54:54;;;;;;;;;;;16.20;91.80;;;;;;31490869;28;19924;-22
2022/04/26 04:09:56;;;;;;;;;;;16.20;91.80;;;;;;31505799;28;19989;-24
2022/04/26 04:24:57;;;;;;;;;;;16.40;91.60;;;;;;31504565;28;20011;-22
2022/04/26 04:39:58;;;;;;;;;;;16.40;91.30;;;;;;31502625;28;20023;-21
2022/04/26 04:54:59;;;;;;;;;;;16.40;91.40;;;;;;31500753;28;20280;-22
2022/04/26 05:10:00;;;;;;;;;;;16.50;91.40;;;;;;31499580;28;20266;-23
2022/04/26 05:25:01;;;;;;;;;;;16.60;91.00;;;;;;31426766;28;19931;-21
2022/04/26 05:40:03;;;;;;;;;;;16.80;90.60;;;;;;31360905;28;20445;-21
2022/04/26 05:55:04;;;;;;;;;;;17.00;90.10;;;;;;31422721;28;19924;-22
2022/04/26 06:10:05;;;;;;;;;;;17.80;88.10;;;;;;31356972;28;20011;-22
2022/04/26 06:25:06;;;;;;;;;;;18.00;87.00;;;;;;31371274;28;19921;-21
2022/04/26 06:40:08;;;;;;;;;;;17.90;86.70;;;;;;31400892;28;20397;-22
2022/04/26 06:55:09;;;;;;;;;;;17.80;86.40;;;;;;31483296;28;19970;-21
2022/04/26 07:10:10;;;;;;;;;;;17.80;86.40;;;;;;31501131;28;19924;-21
2022/04/26 07:25:11;;;;;;;;;;;17.70;85.90;;;;;;31458114;28;19947;-22
2022/04/26 07:40:12;;;;;;;;;;;17.60;85.20;;;;;;31442242;28;20378;-21
2022/04/26 07:55:13;;;;;;;;;;;17.80;85.10;;;;;;31503189;28;19920;-22
2022/04/26 08:10:14;;;;;;;;;;;18.50;83.20;;;;;;31501447;28;19927;-22
2022/04/26 08:40:35;;;;;;;;;;;17.30;82.90;;;;;;31554879;28;20006;-21
2022/04/26 08:55:43;;;;;;;;;;;17.00;81.00;;;;;;31605782;28;20019;-22
2022/04/26 09:10:47;;;;;;;;;;;16.90;78.50;;;;;;31479889;28;19920;-22
2022/04/26 09:25:53;;;;;;;;;;;17.10;76.40;;;;;;31498489;28;20042;-21
2022/04/26 09:40:58;;;;;;;;;;;17.10;75.50;;;;;;31496782;28;20018;-21
2022/04/26 09:55:59;;;;;;;;;;;16.90;74.20;;;;;;31496860;28;19927;-22
2022/04/26 10:11:01;;;;;;;;;;;16.90;72.80;;;;;;31511206;28;19920;-21
2022/04/26 10:26:11;;;;;;;;;;;16.90;71.60;;;;;;31518138;28;19924;-22
2022/04/26 10:41:12;;;;;;;;;;;16.60;69.10;;;;;;31516505;28;19920;-22
2022/04/26 10:56:14;;;;;;;;;;;16.80;67.80;;;;;;31512052;28;19920;-22
2022/04/26 11:11:15;;;;;;;;;;;17.60;68.30;;;;;;31476864;28;19969;-21
2022/04/26 11:41:35;;;;;;;;;;;17.90;69.10;;;;;;31395244;28;19932;-23
2022/04/26 11:56:36;;;;;;;;;;;18.00;69.60;;;;;;31369676;28;19995;-22
2022/04/26 12:11:38;;;;;;;;;;;18.10;70.20;;;;;;31373838;28;20031;-23
2022/04/26 12:26:50;;;;;;;;;;;17.90;71.60;;;;;;31455428;28;19927;-22
2022/04/26 12:41:51;;;;;;;;;;;18.20;71.40;;;;;;31406723;28;19967;-21
2022/04/26 12:56:59;;;;;;;;;;;18.20;71.20;;;;;;31409460;28;19927;-22
2022/04/26 13:12:00;;;;;;;;;;;18.30;70.90;;;;;;31364706;28;20034;-21
2022/04/26 13:27:02;;;;;;;;;;;18.60;72.30;;;;;;31407235;28;19956;-21
2022/04/26 13:42:03;;;;;;;;;;;18.50;71.20;;;;;;31418949;28;19924;-22
2022/04/26 13:57:07;;;;;;;;;;;18.30;81.90;;;;;;31415705;28;19966;-21
2022/04/26 14:12:08;;;;;;;;;;;18.20;73.70;;;;;;31397658;28;20002;-22
2022/04/26 14:27:09;;;;;;;;;;;18.70;72.20;;;;;;31488651;28;19927;-21
2022/04/26 14:42:10;;;;;;;;;;;19.00;71.80;;;;;;31500487;28;19920;-21
2022/04/26 14:57:12;;;;;;;;;;;19.00;73.80;;;;;;31413542;28;20019;-22
2022/04/26 15:27:34;;;;;;;;;;;18.60;71.30;;;;;;31416962;28;20046;-21
2022/04/26 15:42:35;;;;;;;;;;;18.50;71.40;;;;;;31385162;28;19932;-21
2022/04/26 15:57:37;;;;;;;;;;;18.30;70.90;;;;;;31388641;28;20379;-21
2022/04/26 16:28:00;;;;;;;;;;;18.80;70.60;;;;;;31491785;28;19963;-21
2022/04/26 16:43:02;;;;;;;;;;;18.60;70.80;;;;;;31400163;28;20388;-21
2022/04/26 16:58:05;;;;;;;;;;;18.00;71.90;;;;;;31363599;28;19931;-21
2022/04/26 17:13:06;;;;;;;;;;;17.80;72.10;;;;;;31408100;28;19920;-21
2022/04/26 17:28:10;;;;;;;;;;;17.90;72.30;;;;;;31456009;28;19921;-21
2022/04/26 17:43:11;;;;;;;;;;;17.90;73.50;;;;;;31434319;28;20274;-21
2022/04/26 17:58:12;;;;;;;;;;;17.80;74.70;;;;;;31453930;28;19924;-21
2022/04/26 18:13:14;;;;;;;;;;;17.70;75.90;;;;;;31404471;28;19947;-21
2022/04/26 18:28:15;;;;;;;;;;;17.60;77.10;;;;;;31384775;28;19920;-21
2022/04/26 18:43:16;;;;;;;;;;;17.50;78.50;;;;;;31461557;28;19932;-21
2022/04/26 18:58:18;;;;;;;;;;;17.30;80.70;;;;;;31515228;28;19920;-21
2022/04/26 19:13:20;;;;;;;;;;;17.30;81.90;;;;;;31483124;28;19924;-21
2022/04/26 19:28:22;;;;;;;;;;;17.00;82.30;;;;;;31413452;28;19963;-22
2022/04/26 19:43:23;;;;;;;;;;;16.80;82.20;;;;;;31413184;28;19964;-21
2022/04/26 19:58:25;;;;;;;;;;;16.70;83.10;;;;;;31409505;28;20027;-22
2022/04/26 20:13:27;;;;;;;;;;;16.70;83.50;;;;;;31382610;28;19924;-22
2022/04/26 20:43:47;;;;;;;;;;;16.60;84.00;;;;;;31456895;28;20070;-22
2022/04/26 20:58:49;;;;;;;;;;;16.60;84.50;;;;;;31501808;28;19925;-23
2022/04/26 21:13:50;;;;;;;;;;;16.60;84.50;;;;;;31499776;28;19921;-21
2022/04/26 21:28:51;;;;;;;;;;;16.60;84.90;;;;;;31498694;28;20022;-23
2022/04/26 21:43:54;;;;;;;;;;;16.70;84.40;;;;;;31479848;28;19925;-21
2022/04/26 21:58:55;;;;;;;;;;;16.90;84.30;;;;;;31497851;28;20262;-22
2022/04/26 22:13:56;;;;;;;;;;;16.90;84.30;;;;;;31521300;28;20378;-21
2022/04/26 22:28:57;;;;;;;;;;;17.00;84.90;;;;;;31519356;28;20292;-22
2022/04/26 22:43:59;;;;;;;;;;;17.00;84.80;;;;;;31517056;28;20293;-26
2022/04/26 22:59:00;;;;;;;;;;;17.00;85.40;;;;;;31515534;28;19928;-21
2022/04/26 23:14:02;;;;;;;;;;;16.90;85.70;;;;;;31513480;28;19945;-21
2022/04/26 23:29:06;;;;;;;;;;;16.90;85.80;;;;;;31510520;28;19920;-21
2022/04/26 23:44:09;;;;;;;;;;;16.80;85.60;;;;;;31510778;28;19927;-25
2022/04/26 23:59:12;;;;;;;;;;;16.70;85.70;;;;;;31491371;28;20358;-21
